sensor_id;sensor_type;location;lat;lon;timestamp;P1;durP1;ratioP1;P2;durP2;ratioP2
83893;SDS011;73920;51.902;6.374;2024-02-15T00:02:15;16.90;;;8.57;;
83893;SDS011;73920;51.902;6.374;2024-02-15T00:04:41;19.75;;;8.60;;
83893;SDS011;73920;51.902;6.374;2024-02-15T00:07:07;18.73;;;8.60;;
83893;SDS011;73920;51.902;6.374;2024-02-15T00:09:34;16.12;;;8.27;;
83893;SDS011;73920;51.902;6.374;2024-02-15T00:12:00;20.45;;;8.93;;
83893;SDS011;73920;51.902;6.374;2024-02-15T00:14:26;17.92;;;8.48;;
83893;SDS011;73920;51.902;6.374;2024-02-15T00:16:52;19.02;;;9.02;;
83893;SDS011;73920;51.902;6.374;2024-02-15T00:19:19;18.00;;;8.48;;
83893;SDS011;73920;51.902;6.374;2024-02-15T00:21:45;15.73;;;7.87;;
83893;SDS011;73920;51.902;6.374;2024-02-15T00:24:12;18.95;;;9.20;;
83893;SDS011;73920;51.902;6.374;2024-02-15T00:26:38;17.90;;;8.50;;
83893;SDS011;73920;51.902;6.374;2024-02-15T00:29:04;19.00;;;8.38;;
83893;SDS011;73920;51.902;6.374;2024-02-15T00:31:30;14.52;;;8.18;;
83893;SDS011;73920;51.902;6.374;2024-02-15T00:33:56;18.83;;;8.98;;
83893;SDS011;73920;51.902;6.374;2024-02-15T00:36:23;16.23;;;8.38;;
83893;SDS011;73920;51.902;6.374;2024-02-15T00:38:49;18.15;;;9.18;;
83893;SDS011;73920;51.902;6.374;2024-02-15T00:41:15;22.73;;;9.48;;
83893;SDS011;73920;51.902;6.374;2024-02-15T00:43:41;18.08;;;9.27;;
83893;SDS011;73920;51.902;6.374;2024-02-15T00:46:07;23.15;;;9.85;;
83893;SDS011;73920;51.902;6.374;2024-02-15T00:48:34;17.37;;;9.23;;
83893;SDS011;73920;51.902;6.374;2024-02-15T00:51:00;19.60;;;9.00;;
83893;SDS011;73920;51.902;6.374;2024-02-15T00:53:26;22.42;;;9.63;;
83893;SDS011;73920;51.902;6.374;2024-02-15T00:55:52;21.23;;;9.40;;
83893;SDS011;73920;51.902;6.374;2024-02-15T00:58:18;19.65;;;10.10;;
83893;SDS011;73920;51.902;6.374;2024-02-15T01:00:45;18.00;;;9.40;;
83893;SDS011;73920;51.902;6.374;2024-02-15T01:03:11;19.50;;;9.55;;
83893;SDS011;73920;51.902;6.374;2024-02-15T01:05:37;21.83;;;9.82;;
83893;SDS011;73920;51.902;6.374;2024-02-15T01:08:04;20.65;;;10.23;;
83893;SDS011;73920;51.902;6.374;2024-02-15T01:10:30;20.10;;;9.13;;
83893;SDS011;73920;51.902;6.374;2024-02-15T01:12:56;15.45;;;9.05;;
83893;SDS011;73920;51.902;6.374;2024-02-15T01:15:22;20.17;;;9.48;;
83893;SDS011;73920;51.902;6.374;2024-02-15T01:17:49;18.00;;;9.32;;
83893;SDS011;73920;51.902;6.374;2024-02-15T01:20:15;16.40;;;9.10;;
83893;SDS011;73920;51.902;6.374;2024-02-15T01:22:41;21.33;;;9.75;;
83893;SDS011;73920;51.902;6.374;2024-02-15T01:25:07;19.90;;;9.80;;
83893;SDS011;73920;51.902;6.374;2024-02-15T01:27:34;19.60;;;10.23;;
83893;SDS011;73920;51.902;6.374;2024-02-15T01:30:00;21.12;;;9.75;;
83893;SDS011;73920;51.902;6.374;2024-02-15T01:32:26;18.62;;;9.07;;
83893;SDS011;73920;51.902;6.374;2024-02-15T01:34:53;27.00;;;10.43;;
83893;SDS011;73920;51.902;6.374;2024-02-15T01:37:20;20.58;;;11.00;;
83893;SDS011;73920;51.902;6.374;2024-02-15T01:39:46;21.95;;;11.05;;
83893;SDS011;73920;51.902;6.374;2024-02-15T01:42:13;23.95;;;10.55;;
83893;SDS011;73920;51.902;6.374;2024-02-15T01:44:42;21.30;;;11.10;;
83893;SDS011;73920;51.902;6.374;2024-02-15T01:47:08;26.12;;;11.43;;
83893;SDS011;73920;51.902;6.374;2024-02-15T01:49:35;23.67;;;10.38;;
83893;SDS011;73920;51.902;6.374;2024-02-15T01:52:02;26.08;;;11.07;;
83893;SDS011;73920;51.902;6.374;2024-02-15T01:54:32;18.62;;;10.10;;
83893;SDS011;73920;51.902;6.374;2024-02-15T01:56:58;28.42;;;11.10;;
83893;SDS011;73920;51.902;6.374;2024-02-15T01:59:25;25.75;;;10.68;;
83893;SDS011;73920;51.902;6.374;2024-02-15T02:01:51;25.73;;;11.25;;
83893;SDS011;73920;51.902;6.374;2024-02-15T02:04:18;24.45;;;10.52;;
83893;SDS011;73920;51.902;6.374;2024-02-15T02:06:45;24.55;;;10.85;;
83893;SDS011;73920;51.902;6.374;2024-02-15T02:09:11;24.92;;;11.07;;
83893;SDS011;73920;51.902;6.374;2024-02-15T02:11:38;25.02;;;11.18;;
83893;SDS011;73920;51.902;6.374;2024-02-15T02:14:05;24.35;;;11.40;;
83893;SDS011;73920;51.902;6.374;2024-02-15T02:16:31;20.80;;;9.23;;
83893;SDS011;73920;51.902;6.374;2024-02-15T02:18:58;23.45;;;9.07;;
83893;SDS011;73920;51.902;6.374;2024-02-15T02:21:28;21.12;;;9.57;;
83893;SDS011;73920;51.902;6.374;2024-02-15T02:23:57;22.15;;;10.57;;
83893;SDS011;73920;51.902;6.374;2024-02-15T02:26:24;23.02;;;10.23;;
83893;SDS011;73920;51.902;6.374;2024-02-15T02:28:51;18.83;;;8.88;;
83893;SDS011;73920;51.902;6.374;2024-02-15T02:31:17;18.12;;;8.30;;
83893;SDS011;73920;51.902;6.374;2024-02-15T02:33:47;15.13;;;7.70;;
83893;SDS011;73920;51.902;6.374;2024-02-15T02:36:20;20.00;;;8.32;;
83893;SDS011;73920;51.902;6.374;2024-02-15T02:38:46;21.05;;;8.82;;
83893;SDS011;73920;51.902;6.374;2024-02-15T02:41:13;18.20;;;7.50;;
83893;SDS011;73920;51.902;6.374;2024-02-15T02:43:39;18.70;;;7.40;;
83893;SDS011;73920;51.902;6.374;2024-02-15T02:46:06;17.52;;;7.47;;
83893;SDS011;73920;51.902;6.374;2024-02-15T02:48:35;14.85;;;7.25;;
83893;SDS011;73920;51.902;6.374;2024-02-15T02:51:03;24.73;;;8.35;;
83893;SDS011;73920;51.902;6.374;2024-02-15T02:53:29;17.12;;;7.72;;
83893;SDS011;73920;51.902;6.374;2024-02-15T02:55:56;17.15;;;7.07;;
83893;SDS011;73920;51.902;6.374;2024-02-15T02:58:22;20.05;;;7.28;;
83893;SDS011;73920;51.902;6.374;2024-02-15T03:00:49;16.75;;;7.30;;
83893;SDS011;73920;51.902;6.374;2024-02-15T03:03:16;17.40;;;6.50;;
83893;SDS011;73920;51.902;6.374;2024-02-15T03:05:43;15.15;;;5.70;;
83893;SDS011;73920;51.902;6.374;2024-02-15T03:08:09;13.38;;;5.75;;
83893;SDS011;73920;51.902;6.374;2024-02-15T03:10:37;16.75;;;7.43;;
83893;SDS011;73920;51.902;6.374;2024-02-15T03:13:03;16.85;;;6.57;;
83893;SDS011;73920;51.902;6.374;2024-02-15T03:15:31;19.52;;;7.45;;
83893;SDS011;73920;51.902;6.374;2024-02-15T03:17:57;17.10;;;7.62;;
83893;SDS011;73920;51.902;6.374;2024-02-15T03:20:24;21.40;;;9.27;;
83893;SDS011;73920;51.902;6.374;2024-02-15T03:25:22;26.52;;;11.25;;
83893;SDS011;73920;51.902;6.374;2024-02-15T03:27:49;28.80;;;11.00;;
83893;SDS011;73920;51.902;6.374;2024-02-15T03:30:17;26.58;;;12.10;;
83893;SDS011;73920;51.902;6.374;2024-02-15T03:35:09;31.10;;;12.30;;
83893;SDS011;73920;51.902;6.374;2024-02-15T03:37:36;29.70;;;13.30;;
83893;SDS011;73920;51.902;6.374;2024-02-15T03:40:02;31.67;;;13.40;;
83893;SDS011;73920;51.902;6.374;2024-02-15T03:42:30;34.65;;;12.93;;
83893;SDS011;73920;51.902;6.374;2024-02-15T03:44:56;30.60;;;12.48;;
83893;SDS011;73920;51.902;6.374;2024-02-15T03:47:22;28.60;;;10.90;;
83893;SDS011;73920;51.902;6.374;2024-02-15T03:49:48;27.85;;;11.02;;
83893;SDS011;73920;51.902;6.374;2024-02-15T03:52:15;27.55;;;10.93;;
83893;SDS011;73920;51.902;6.374;2024-02-15T03:54:41;27.85;;;10.05;;
83893;SDS011;73920;51.902;6.374;2024-02-15T03:57:07;22.05;;;9.95;;
83893;SDS011;73920;51.902;6.374;2024-02-15T03:59:33;22.45;;;8.68;;
83893;SDS011;73920;51.902;6.374;2024-02-15T04:01:59;23.48;;;9.80;;
83893;SDS011;73920;51.902;6.374;2024-02-15T04:04:26;17.33;;;7.75;;
83893;SDS011;73920;51.902;6.374;2024-02-15T04:06:53;19.27;;;8.15;;
83893;SDS011;73920;51.902;6.374;2024-02-15T04:09:19;17.45;;;7.60;;
83893;SDS011;73920;51.902;6.374;2024-02-15T04:11:45;15.77;;;6.68;;
83893;SDS011;73920;51.902;6.374;2024-02-15T04:14:14;14.98;;;6.60;;
83893;SDS011;73920;51.902;6.374;2024-02-15T04:16:41;12.70;;;5.82;;
83893;SDS011;73920;51.902;6.374;2024-02-15T04:19:07;14.55;;;5.97;;
83893;SDS011;73920;51.902;6.374;2024-02-15T04:21:33;18.58;;;5.80;;
83893;SDS011;73920;51.902;6.374;2024-02-15T04:23:59;12.50;;;5.20;;
83893;SDS011;73920;51.902;6.374;2024-02-15T04:26:25;12.60;;;5.05;;
83893;SDS011;73920;51.902;6.374;2024-02-15T04:28:54;9.35;;;4.55;;
83893;SDS011;73920;51.902;6.374;2024-02-15T04:31:21;16.12;;;5.47;;
83893;SDS011;73920;51.902;6.374;2024-02-15T04:33:47;13.77;;;5.87;;
83893;SDS011;73920;51.902;6.374;2024-02-15T04:36:13;18.67;;;5.57;;
83893;SDS011;73920;51.902;6.374;2024-02-15T04:38:40;12.05;;;4.72;;
83893;SDS011;73920;51.902;6.374;2024-02-15T04:41:06;12.93;;;4.60;;
83893;SDS011;73920;51.902;6.374;2024-02-15T04:43:32;14.77;;;4.82;;
83893;SDS011;73920;51.902;6.374;2024-02-15T04:45:58;9.32;;;4.82;;
83893;SDS011;73920;51.902;6.374;2024-02-15T04:48:24;15.95;;;5.35;;
83893;SDS011;73920;51.902;6.374;2024-02-15T04:50:51;10.25;;;4.72;;
83893;SDS011;73920;51.902;6.374;2024-02-15T04:53:17;13.00;;;5.45;;
83893;SDS011;73920;51.902;6.374;2024-02-15T04:55:43;11.52;;;4.78;;
83893;SDS011;73920;51.902;6.374;2024-02-15T04:58:09;14.75;;;4.43;;
83893;SDS011;73920;51.902;6.374;2024-02-15T05:00:36;11.30;;;4.20;;
83893;SDS011;73920;51.902;6.374;2024-02-15T05:03:02;11.57;;;4.28;;
83893;SDS011;73920;51.902;6.374;2024-02-15T05:05:30;15.60;;;4.87;;
83893;SDS011;73920;51.902;6.374;2024-02-15T05:07:56;15.00;;;4.15;;
83893;SDS011;73920;51.902;6.374;2024-02-15T05:10:22;15.35;;;4.30;;
83893;SDS011;73920;51.902;6.374;2024-02-15T05:12:48;10.82;;;3.42;;
83893;SDS011;73920;51.902;6.374;2024-02-15T05:15:15;10.45;;;3.72;;
83893;SDS011;73920;51.902;6.374;2024-02-15T05:17:41;6.28;;;3.47;;
83893;SDS011;73920;51.902;6.374;2024-02-15T05:20:11;8.40;;;3.25;;
83893;SDS011;73920;51.902;6.374;2024-02-15T05:22:38;13.43;;;3.70;;
83893;SDS011;73920;51.902;6.374;2024-02-15T05:25:06;7.87;;;3.20;;
83893;SDS011;73920;51.902;6.374;2024-02-15T05:27:33;6.00;;;2.85;;
83893;SDS011;73920;51.902;6.374;2024-02-15T05:32:26;6.93;;;2.90;;
83893;SDS011;73920;51.902;6.374;2024-02-15T05:34:52;10.55;;;2.97;;
83893;SDS011;73920;51.902;6.374;2024-02-15T05:37:19;13.75;;;3.78;;
83893;SDS011;73920;51.902;6.374;2024-02-15T05:39:45;8.90;;;3.45;;
83893;SDS011;73920;51.902;6.374;2024-02-15T05:42:11;13.82;;;3.70;;
83893;SDS011;73920;51.902;6.374;2024-02-15T05:44:38;8.38;;;3.17;;
83893;SDS011;73920;51.902;6.374;2024-02-15T05:47:04;10.57;;;3.62;;
83893;SDS011;73920;51.902;6.374;2024-02-15T05:49:30;9.35;;;3.42;;
83893;SDS011;73920;51.902;6.374;2024-02-15T05:51:56;8.75;;;3.40;;
83893;SDS011;73920;51.902;6.374;2024-02-15T05:54:22;10.07;;;3.75;;
83893;SDS011;73920;51.902;6.374;2024-02-15T05:56:49;8.38;;;3.78;;
83893;SDS011;73920;51.902;6.374;2024-02-15T05:59:15;8.93;;;3.35;;
83893;SDS011;73920;51.902;6.374;2024-02-15T06:01:41;9.00;;;3.10;;
83893;SDS011;73920;51.902;6.374;2024-02-15T06:04:07;9.07;;;3.25;;
83893;SDS011;73920;51.902;6.374;2024-02-15T06:06:34;11.57;;;3.60;;
83893;SDS011;73920;51.902;6.374;2024-02-15T06:09:00;9.18;;;3.37;;
83893;SDS011;73920;51.902;6.374;2024-02-15T06:11:26;10.25;;;3.25;;
83893;SDS011;73920;51.902;6.374;2024-02-15T06:13:53;10.40;;;3.47;;
83893;SDS011;73920;51.902;6.374;2024-02-15T06:16:19;9.30;;;2.83;;
83893;SDS011;73920;51.902;6.374;2024-02-15T06:18:46;15.40;;;3.25;;
83893;SDS011;73920;51.902;6.374;2024-02-15T06:21:12;10.20;;;3.70;;
83893;SDS011;73920;51.902;6.374;2024-02-15T06:23:39;8.02;;;2.87;;
83893;SDS011;73920;51.902;6.374;2024-02-15T06:26:08;7.22;;;2.80;;
83893;SDS011;73920;51.902;6.374;2024-02-15T06:28:35;8.88;;;3.00;;
83893;SDS011;73920;51.902;6.374;2024-02-15T06:31:01;9.38;;;3.28;;
83893;SDS011;73920;51.902;6.374;2024-02-15T06:33:27;9.35;;;3.25;;
83893;SDS011;73920;51.902;6.374;2024-02-15T06:35:53;9.93;;;3.40;;
83893;SDS011;73920;51.902;6.374;2024-02-15T06:38:20;10.45;;;3.60;;
83893;SDS011;73920;51.902;6.374;2024-02-15T06:40:46;6.72;;;2.58;;
83893;SDS011;73920;51.902;6.374;2024-02-15T06:43:12;11.32;;;3.40;;
83893;SDS011;73920;51.902;6.374;2024-02-15T06:45:39;12.07;;;3.35;;
83893;SDS011;73920;51.902;6.374;2024-02-15T06:48:06;11.60;;;3.72;;
83893;SDS011;73920;51.902;6.374;2024-02-15T06:50:32;9.43;;;3.47;;
83893;SDS011;73920;51.902;6.374;2024-02-15T06:52:58;7.30;;;3.05;;
83893;SDS011;73920;51.902;6.374;2024-02-15T06:55:24;6.45;;;3.60;;
83893;SDS011;73920;51.902;6.374;2024-02-15T06:57:51;9.25;;;3.65;;
83893;SDS011;73920;51.902;6.374;2024-02-15T07:00:17;6.30;;;2.97;;
83893;SDS011;73920;51.902;6.374;2024-02-15T07:02:43;7.07;;;3.33;;
83893;SDS011;73920;51.902;6.374;2024-02-15T07:05:10;10.98;;;3.40;;
83893;SDS011;73920;51.902;6.374;2024-02-15T07:07:36;6.90;;;3.22;;
83893;SDS011;73920;51.902;6.374;2024-02-15T07:10:03;9.77;;;3.30;;
83893;SDS011;73920;51.902;6.374;2024-02-15T07:14:55;8.73;;;3.08;;
83893;SDS011;73920;51.902;6.374;2024-02-15T07:17:22;12.60;;;2.97;;
83893;SDS011;73920;51.902;6.374;2024-02-15T07:19:48;7.07;;;3.15;;
83893;SDS011;73920;51.902;6.374;2024-02-15T07:22:15;10.05;;;3.65;;
83893;SDS011;73920;51.902;6.374;2024-02-15T07:24:41;6.40;;;2.75;;
83893;SDS011;73920;51.902;6.374;2024-02-15T07:27:07;5.22;;;2.62;;
83893;SDS011;73920;51.902;6.374;2024-02-15T07:29:34;6.35;;;2.42;;
83893;SDS011;73920;51.902;6.374;2024-02-15T07:32:03;11.23;;;2.60;;
83893;SDS011;73920;51.902;6.374;2024-02-15T07:34:30;9.25;;;3.22;;
83893;SDS011;73920;51.902;6.374;2024-02-15T07:36:57;6.53;;;2.67;;
83893;SDS011;73920;51.902;6.374;2024-02-15T07:39:23;6.68;;;2.85;;
83893;SDS011;73920;51.902;6.374;2024-02-15T07:41:50;6.93;;;2.58;;
83893;SDS011;73920;51.902;6.374;2024-02-15T07:44:17;10.95;;;3.00;;
83893;SDS011;73920;51.902;6.374;2024-02-15T07:46:43;8.73;;;2.47;;
83893;SDS011;73920;51.902;6.374;2024-02-15T07:49:11;11.52;;;2.90;;
83893;SDS011;73920;51.902;6.374;2024-02-15T07:51:37;11.95;;;3.25;;
83893;SDS011;73920;51.902;6.374;2024-02-15T07:54:03;8.38;;;2.42;;
83893;SDS011;73920;51.902;6.374;2024-02-15T07:56:30;7.12;;;2.42;;
83893;SDS011;73920;51.902;6.374;2024-02-15T07:58:56;6.90;;;2.20;;
83893;SDS011;73920;51.902;6.374;2024-02-15T08:01:22;5.85;;;2.28;;
83893;SDS011;73920;51.902;6.374;2024-02-15T08:03:48;5.05;;;2.30;;
83893;SDS011;73920;51.902;6.374;2024-02-15T08:06:15;8.25;;;2.35;;
83893;SDS011;73920;51.902;6.374;2024-02-15T08:08:42;8.15;;;3.03;;
83893;SDS011;73920;51.902;6.374;2024-02-15T08:11:10;8.32;;;2.53;;
83893;SDS011;73920;51.902;6.374;2024-02-15T08:13:39;6.05;;;2.60;;
83893;SDS011;73920;51.902;6.374;2024-02-15T08:16:10;10.52;;;2.60;;
83893;SDS011;73920;51.902;6.374;2024-02-15T08:18:37;4.95;;;2.90;;
83893;SDS011;73920;51.902;6.374;2024-02-15T08:21:03;6.78;;;2.83;;
83893;SDS011;73920;51.902;6.374;2024-02-15T08:23:30;5.82;;;2.30;;
83893;SDS011;73920;51.902;6.374;2024-02-15T08:25:57;6.93;;;2.25;;
83893;SDS011;73920;51.902;6.374;2024-02-15T08:28:23;7.40;;;2.33;;
83893;SDS011;73920;51.902;6.374;2024-02-15T08:30:51;5.30;;;2.28;;
83893;SDS011;73920;51.902;6.374;2024-02-15T08:33:18;7.00;;;2.53;;
83893;SDS011;73920;51.902;6.374;2024-02-15T08:35:44;8.10;;;3.12;;
83893;SDS011;73920;51.902;6.374;2024-02-15T08:38:10;12.23;;;3.30;;
83893;SDS011;73920;51.902;6.374;2024-02-15T08:40:36;8.57;;;3.20;;
83893;SDS011;73920;51.902;6.374;2024-02-15T08:43:03;8.55;;;3.50;;
83893;SDS011;73920;51.902;6.374;2024-02-15T08:45:29;8.48;;;2.70;;
83893;SDS011;73920;51.902;6.374;2024-02-15T08:47:55;7.00;;;2.97;;
83893;SDS011;73920;51.902;6.374;2024-02-15T08:50:22;7.95;;;2.95;;
83893;SDS011;73920;51.902;6.374;2024-02-15T08:52:48;9.05;;;2.85;;
83893;SDS011;73920;51.902;6.374;2024-02-15T08:55:15;7.97;;;2.87;;
83893;SDS011;73920;51.902;6.374;2024-02-15T08:57:42;8.25;;;2.60;;
83893;SDS011;73920;51.902;6.374;2024-02-15T09:00:09;7.28;;;3.20;;
83893;SDS011;73920;51.902;6.374;2024-02-15T09:02:35;3.95;;;2.12;;
83893;SDS011;73920;51.902;6.374;2024-02-15T09:05:02;4.95;;;2.15;;
83893;SDS011;73920;51.902;6.374;2024-02-15T09:07:28;7.22;;;2.12;;
83893;SDS011;73920;51.902;6.374;2024-02-15T09:09:54;4.00;;;1.95;;
83893;SDS011;73920;51.902;6.374;2024-02-15T09:12:20;6.12;;;2.10;;
83893;SDS011;73920;51.902;6.374;2024-02-15T09:14:47;2.30;;;1.60;;
83893;SDS011;73920;51.902;6.374;2024-02-15T09:17:13;6.55;;;2.10;;
83893;SDS011;73920;51.902;6.374;2024-02-15T09:19:40;3.72;;;1.90;;
83893;SDS011;73920;51.902;6.374;2024-02-15T09:22:06;3.67;;;2.00;;
83893;SDS011;73920;51.902;6.374;2024-02-15T09:24:32;3.37;;;1.92;;
83893;SDS011;73920;51.902;6.374;2024-02-15T09:26:59;4.87;;;1.90;;
83893;SDS011;73920;51.902;6.374;2024-02-15T09:29:29;5.97;;;2.72;;
83893;SDS011;73920;51.902;6.374;2024-02-15T09:31:56;4.00;;;2.17;;
83893;SDS011;73920;51.902;6.374;2024-02-15T09:34:23;8.40;;;2.65;;
83893;SDS011;73920;51.902;6.374;2024-02-15T09:36:50;4.00;;;1.90;;
83893;SDS011;73920;51.902;6.374;2024-02-15T09:39:16;5.78;;;2.15;;
83893;SDS011;73920;51.902;6.374;2024-02-15T09:41:42;5.10;;;1.90;;
83893;SDS011;73920;51.902;6.374;2024-02-15T09:44:09;6.40;;;2.20;;
83893;SDS011;73920;51.902;6.374;2024-02-15T09:46:36;5.50;;;1.98;;
83893;SDS011;73920;51.902;6.374;2024-02-15T09:49:07;5.00;;;2.15;;
83893;SDS011;73920;51.902;6.374;2024-02-15T09:51:34;8.07;;;2.55;;
83893;SDS011;73920;51.902;6.374;2024-02-15T09:54:02;5.37;;;2.37;;
83893;SDS011;73920;51.902;6.374;2024-02-15T09:56:30;4.55;;;2.65;;
83893;SDS011;73920;51.902;6.374;2024-02-15T09:58:58;6.70;;;2.70;;
83893;SDS011;73920;51.902;6.374;2024-02-15T10:01:25;4.93;;;2.42;;
83893;SDS011;73920;51.902;6.374;2024-02-15T10:03:56;7.78;;;2.42;;
83893;SDS011;73920;51.902;6.374;2024-02-15T10:06:27;8.68;;;2.95;;
83893;SDS011;73920;51.902;6.374;2024-02-15T10:08:54;10.35;;;3.15;;
83893;SDS011;73920;51.902;6.374;2024-02-15T10:14:21;7.85;;;3.33;;
83893;SDS011;73920;51.902;6.374;2024-02-15T10:16:52;5.87;;;2.97;;
83893;SDS011;73920;51.902;6.374;2024-02-15T10:19:19;7.07;;;2.50;;
83893;SDS011;73920;51.902;6.374;2024-02-15T10:21:46;6.00;;;2.75;;
83893;SDS011;73920;51.902;6.374;2024-02-15T10:24:13;5.78;;;2.47;;
83893;SDS011;73920;51.902;6.374;2024-02-15T18:00:45;6.57;;;1.83;;
83893;SDS011;73920;51.902;6.374;2024-02-15T18:03:11;4.65;;;2.10;;
83893;SDS011;73920;51.902;6.374;2024-02-15T18:05:37;6.15;;;2.35;;
83893;SDS011;73920;51.902;6.374;2024-02-15T18:08:04;3.47;;;1.70;;
83893;SDS011;73920;51.902;6.374;2024-02-15T18:10:31;5.28;;;1.92;;
83893;SDS011;73920;51.902;6.374;2024-02-15T18:12:57;5.05;;;1.42;;
83893;SDS011;73920;51.902;6.374;2024-02-15T18:15:23;8.85;;;1.98;;
83893;SDS011;73920;51.902;6.374;2024-02-15T18:17:50;5.18;;;1.87;;
83893;SDS011;73920;51.902;6.374;2024-02-15T18:20:16;4.93;;;1.85;;
83893;SDS011;73920;51.902;6.374;2024-02-15T18:22:42;6.95;;;1.60;;
83893;SDS011;73920;51.902;6.374;2024-02-15T18:25:09;8.05;;;1.48;;
83893;SDS011;73920;51.902;6.374;2024-02-15T18:27:36;4.12;;;2.03;;
83893;SDS011;73920;51.902;6.374;2024-02-15T18:30:06;7.28;;;1.98;;
83893;SDS011;73920;51.902;6.374;2024-02-15T18:32:34;5.15;;;1.67;;
83893;SDS011;73920;51.902;6.374;2024-02-15T18:35:01;3.37;;;1.83;;
83893;SDS011;73920;51.902;6.374;2024-02-15T18:37:27;4.30;;;1.67;;
83893;SDS011;73920;51.902;6.374;2024-02-15T18:39:53;4.43;;;1.65;;
83893;SDS011;73920;51.902;6.374;2024-02-15T18:42:19;5.65;;;1.45;;
83893;SDS011;73920;51.902;6.374;2024-02-15T18:44:45;3.90;;;1.73;;
83893;SDS011;73920;51.902;6.374;2024-02-15T18:47:12;3.95;;;1.55;;
83893;SDS011;73920;51.902;6.374;2024-02-15T18:49:38;4.20;;;2.00;;
83893;SDS011;73920;51.902;6.374;2024-02-15T18:52:04;4.93;;;2.20;;
83893;SDS011;73920;51.902;6.374;2024-02-15T18:54:30;6.15;;;2.30;;
83893;SDS011;73920;51.902;6.374;2024-02-15T18:56:56;6.87;;;3.10;;
83893;SDS011;73920;51.902;6.374;2024-02-15T18:59:23;8.40;;;3.70;;
83893;SDS011;73920;51.902;6.374;2024-02-15T19:01:49;6.07;;;3.22;;
83893;SDS011;73920;51.902;6.374;2024-02-15T19:04:15;7.80;;;3.42;;
83893;SDS011;73920;51.902;6.374;2024-02-15T19:06:42;4.15;;;1.77;;
83893;SDS011;73920;51.902;6.374;2024-02-15T19:09:08;4.72;;;1.50;;
83893;SDS011;73920;51.902;6.374;2024-02-15T19:11:34;4.30;;;2.00;;
83893;SDS011;73920;51.902;6.374;2024-02-15T19:14:00;4.18;;;1.65;;
83893;SDS011;73920;51.902;6.374;2024-02-15T19:16:26;3.37;;;1.70;;
83893;SDS011;73920;51.902;6.374;2024-02-15T19:18:53;3.83;;;2.00;;
83893;SDS011;73920;51.902;6.374;2024-02-15T19:21:19;4.60;;;1.50;;
83893;SDS011;73920;51.902;6.374;2024-02-15T19:23:45;4.18;;;1.70;;
83893;SDS011;73920;51.902;6.374;2024-02-15T19:26:11;3.20;;;1.70;;
83893;SDS011;73920;51.902;6.374;2024-02-15T19:28:38;4.57;;;1.92;;
83893;SDS011;73920;51.902;6.374;2024-02-15T19:31:04;4.53;;;2.08;;
83893;SDS011;73920;51.902;6.374;2024-02-15T19:33:30;2.37;;;1.60;;
83893;SDS011;73920;51.902;6.374;2024-02-15T19:35:56;5.97;;;2.05;;
83893;SDS011;73920;51.902;6.374;2024-02-15T19:38:23;5.32;;;2.10;;
83893;SDS011;73920;51.902;6.374;2024-02-15T19:40:49;3.90;;;1.77;;
83893;SDS011;73920;51.902;6.374;2024-02-15T19:43:15;4.80;;;1.77;;
83893;SDS011;73920;51.902;6.374;2024-02-15T19:45:41;3.25;;;1.37;;
83893;SDS011;73920;51.902;6.374;2024-02-15T19:48:08;3.30;;;1.37;;
83893;SDS011;73920;51.902;6.374;2024-02-15T19:50:35;4.75;;;1.60;;
83893;SDS011;73920;51.902;6.374;2024-02-15T19:53:01;3.92;;;1.55;;
83893;SDS011;73920;51.902;6.374;2024-02-15T19:55:27;6.07;;;1.40;;
83893;SDS011;73920;51.902;6.374;2024-02-15T19:57:54;2.70;;;1.35;;
83893;SDS011;73920;51.902;6.374;2024-02-15T20:00:20;1.85;;;1.20;;
83893;SDS011;73920;51.902;6.374;2024-02-15T20:02:46;3.35;;;1.20;;
83893;SDS011;73920;51.902;6.374;2024-02-15T20:05:13;2.20;;;1.20;;
83893;SDS011;73920;51.902;6.374;2024-02-15T20:07:39;3.97;;;1.15;;
83893;SDS011;73920;51.902;6.374;2024-02-15T20:10:06;6.20;;;1.40;;
83893;SDS011;73920;51.902;6.374;2024-02-15T20:12:33;3.00;;;1.27;;
83893;SDS011;73920;51.902;6.374;2024-02-15T20:15:00;5.30;;;1.48;;
83893;SDS011;73920;51.902;6.374;2024-02-15T20:17:27;6.00;;;1.85;;
83893;SDS011;73920;51.902;6.374;2024-02-15T20:19:54;3.17;;;1.40;;
83893;SDS011;73920;51.902;6.374;2024-02-15T20:22:21;3.05;;;1.00;;
83893;SDS011;73920;51.902;6.374;2024-02-15T20:24:47;4.30;;;1.27;;
83893;SDS011;73920;51.902;6.374;2024-02-15T20:27:13;4.35;;;1.30;;
83893;SDS011;73920;51.902;6.374;2024-02-15T20:29:40;3.45;;;1.10;;
83893;SDS011;73920;51.902;6.374;2024-02-15T20:32:06;4.43;;;1.33;;
83893;SDS011;73920;51.902;6.374;2024-02-15T20:34:32;2.85;;;1.27;;
83893;SDS011;73920;51.902;6.374;2024-02-15T20:36:58;3.58;;;1.40;;
83893;SDS011;73920;51.902;6.374;2024-02-15T20:39:25;4.05;;;1.10;;
83893;SDS011;73920;51.902;6.374;2024-02-15T20:41:51;2.92;;;1.10;;
83893;SDS011;73920;51.902;6.374;2024-02-15T20:44:17;4.05;;;1.12;;
83893;SDS011;73920;51.902;6.374;2024-02-15T20:46:44;6.00;;;1.10;;
83893;SDS011;73920;51.902;6.374;2024-02-15T20:49:11;7.93;;;1.85;;
83893;SDS011;73920;51.902;6.374;2024-02-15T20:51:37;4.97;;;1.70;;
83893;SDS011;73920;51.902;6.374;2024-02-15T20:54:03;3.25;;;1.05;;
83893;SDS011;73920;51.902;6.374;2024-02-15T20:56:30;5.68;;;1.52;;
83893;SDS011;73920;51.902;6.374;2024-02-15T20:58:56;2.47;;;1.30;;
83893;SDS011;73920;51.902;6.374;2024-02-15T21:01:22;5.10;;;1.65;;
83893;SDS011;73920;51.902;6.374;2024-02-15T21:03:49;7.07;;;2.33;;
83893;SDS011;73920;51.902;6.374;2024-02-15T21:06:19;4.78;;;1.17;;
83893;SDS011;73920;51.902;6.374;2024-02-15T21:08:46;3.53;;;1.02;;
83893;SDS011;73920;51.902;6.374;2024-02-15T21:11:16;3.67;;;1.30;;
83893;SDS011;73920;51.902;6.374;2024-02-15T21:13:42;2.95;;;1.42;;
83893;SDS011;73920;51.902;6.374;2024-02-15T21:16:08;3.50;;;1.10;;
83893;SDS011;73920;51.902;6.374;2024-02-15T21:18:35;3.75;;;1.48;;
83893;SDS011;73920;51.902;6.374;2024-02-15T21:21:01;4.30;;;1.15;;
83893;SDS011;73920;51.902;6.374;2024-02-15T21:23:28;3.03;;;1.48;;
83893;SDS011;73920;51.902;6.374;2024-02-15T21:25:54;5.35;;;2.03;;
83893;SDS011;73920;51.902;6.374;2024-02-15T21:28:20;2.62;;;1.42;;
83893;SDS011;73920;51.902;6.374;2024-02-15T21:30:47;4.00;;;1.42;;
83893;SDS011;73920;51.902;6.374;2024-02-15T21:33:13;2.80;;;1.00;;
83893;SDS011;73920;51.902;6.374;2024-02-15T21:35:39;1.80;;;0.95;;
83893;SDS011;73920;51.902;6.374;2024-02-15T21:38:05;3.20;;;1.30;;
83893;SDS011;73920;51.902;6.374;2024-02-15T21:40:31;2.92;;;1.48;;
83893;SDS011;73920;51.902;6.374;2024-02-15T21:42:58;2.92;;;1.00;;
83893;SDS011;73920;51.902;6.374;2024-02-15T21:45:24;3.62;;;1.20;;
83893;SDS011;73920;51.902;6.374;2024-02-15T21:47:50;3.05;;;1.33;;
83893;SDS011;73920;51.902;6.374;2024-02-15T21:50:16;4.32;;;1.10;;
83893;SDS011;73920;51.902;6.374;2024-02-15T21:52:42;4.72;;;1.30;;
83893;SDS011;73920;51.902;6.374;2024-02-15T21:55:09;2.62;;;1.42;;
83893;SDS011;73920;51.902;6.374;2024-02-15T21:57:36;5.05;;;1.30;;
83893;SDS011;73920;51.902;6.374;2024-02-15T22:00:03;1.58;;;1.05;;
83893;SDS011;73920;51.902;6.374;2024-02-15T22:02:31;3.28;;;1.25;;
83893;SDS011;73920;51.902;6.374;2024-02-15T22:04:57;4.18;;;1.40;;
83893;SDS011;73920;51.902;6.374;2024-02-15T22:07:25;4.10;;;1.45;;
83893;SDS011;73920;51.902;6.374;2024-02-15T22:09:51;2.28;;;1.25;;
83893;SDS011;73920;51.902;6.374;2024-02-15T22:12:17;2.25;;;1.30;;
83893;SDS011;73920;51.902;6.374;2024-02-15T22:14:43;2.65;;;1.37;;
83893;SDS011;73920;51.902;6.374;2024-02-15T22:17:09;3.42;;;1.85;;
83893;SDS011;73920;51.902;6.374;2024-02-15T22:19:36;3.92;;;1.40;;
83893;SDS011;73920;51.902;6.374;2024-02-15T22:22:02;1.87;;;1.35;;
83893;SDS011;73920;51.902;6.374;2024-02-15T22:24:28;4.35;;;1.62;;